Time;durP1;ratioP1;P1;durP2;ratioP2;P2;SDS_P1;SDS_P2;PMS_P1;PMS_P2;Temp;Humidity;BMP_temperature;BMP_pressure;BME280_temperature;BME280_humidity;BME280_pressure;Samples;Min_cycle;Max_cycle;Signal;HPM_P1;HPM_P2
2023/01/26 00:02:01;;;;;;;24.43;17.07;;;1.20;99.90;;;2.01;99.19;98474.56;5220963;28;20268;-59
2023/01/26 00:04:35;;;;;;;23.60;16.90;;;1.20;99.90;;;1.98;99.22;98476.78;5215388;28;20716;-59
2023/01/26 00:07:09;;;;;;;26.13;17.70;;;1.20;99.90;;;1.93;99.43;98471.28;5220162;28;20201;-59
2023/01/26 00:09:42;;;;;;;25.27;17.43;;;1.20;99.90;;;1.89;99.90;98458.22;5213855;28;20288;-59
2023/01/26 00:12:15;;;;;;;21.80;16.37;;;1.20;99.90;;;1.91;99.43;98459.25;5206999;28;20300;-58
2023/01/26 00:14:50;;;;;;;23.27;16.40;;;1.20;99.90;;;1.89;99.17;98449.03;5210135;28;20314;-60
2023/01/26 00:17:26;;;;;;;25.17;16.37;;;1.20;99.90;;;1.85;98.86;98456.13;5218160;28;20224;-58
2023/01/26 00:20:01;;;;;;;23.60;16.10;;;1.10;99.90;;;1.84;99.43;98451.84;5218008;28;20244;-57
2023/01/26 00:22:34;;;;;;;22.50;16.10;;;1.10;99.90;;;1.86;99.13;98451.25;5221252;28;20937;-59
2023/01/26 00:25:08;;;;;;;24.97;17.20;;;1.20;99.90;;;1.86;99.72;98445.31;5217844;28;20221;-58
2023/01/26 00:27:41;;;;;;;24.27;17.17;;;1.20;99.90;;;1.86;99.64;98437.75;5213664;28;20654;-61
2023/01/26 00:30:15;;;;;;;20.93;15.07;;;1.20;99.90;;;1.83;99.90;98440.84;5218385;28;20575;-60
2023/01/26 00:32:48;;;;;;;22.93;17.37;;;1.10;99.90;;;1.85;99.15;98436.84;5217660;28;20243;-58
2023/01/26 00:35:23;;;;;;;22.10;15.47;;;1.20;99.90;;;1.93;99.43;98430.06;5217532;28;20304;-59
2023/01/26 00:37:56;;;;;;;24.27;16.47;;;1.20;99.90;;;1.91;99.25;98426.50;5215487;28;20220;-59
2023/01/26 00:40:29;;;;;;;23.03;17.23;;;1.20;99.90;;;1.91;99.47;98409.75;5220880;28;20220;-61
2023/01/26 00:43:02;;;;;;;24.00;17.43;;;1.20;99.90;;;1.91;99.60;98409.75;5208323;28;20245;-58
2023/01/26 00:45:35;;;;;;;25.40;17.53;;;1.20;99.90;;;1.88;98.86;98411.06;5212253;28;20240;-60
2023/01/26 00:48:08;;;;;;;23.80;17.00;;;1.10;99.90;;;1.89;99.70;98410.31;5209261;28;20645;-58
2023/01/26 00:50:43;;;;;;;20.17;15.67;;;1.10;99.90;;;1.86;99.80;98407.50;5216562;28;20221;-58
2023/01/26 00:53:16;;;;;;;24.00;17.20;;;1.10;99.90;;;1.84;99.83;98404.84;5220903;28;20261;-59
2023/01/26 00:55:49;;;;;;;24.40;16.87;;;1.10;99.90;;;1.87;98.39;98399.22;5214201;28;20210;-59
2023/01/26 00:58:22;;;;;;;24.13;17.87;;;1.10;99.90;;;1.75;98.63;98408.97;5217625;28;20805;-58
2023/01/26 01:00:55;;;;;;;24.73;15.77;;;1.10;99.90;;;1.77;98.79;98400.84;5218059;28;20236;-60
2023/01/26 01:03:28;;;;;;;24.13;17.07;;;1.10;99.90;;;1.68;99.48;98404.06;5215328;28;20221;-60
2023/01/26 01:06:02;;;;;;;24.40;16.40;;;1.00;99.90;;;1.73;99.70;98397.84;5218892;28;20237;-61
2023/01/26 01:08:36;;;;;;;22.47;16.73;;;1.10;99.90;;;1.76;99.60;98396.50;5219351;28;20247;-60
2023/01/26 01:11:11;;;;;;;24.53;17.47;;;1.10;99.90;;;1.73;98.91;98396.22;5216783;28;20249;-61
2023/01/26 01:13:44;;;;;;;22.10;16.17;;;1.00;99.90;;;1.74;99.48;98397.97;5217534;28;20262;-62
2023/01/26 01:16:18;;;;;;;25.60;17.90;;;1.00;99.90;;;1.74;99.11;98392.94;5217145;28;20233;-61
2023/01/26 01:18:53;;;;;;;24.80;17.40;;;1.00;99.90;;;1.71;99.27;98395.16;5216590;28;20224;-62
2023/01/26 01:21:27;;;;;;;23.57;16.53;;;1.00;99.90;;;1.72;98.66;98389.41;5217636;28;20211;-62
2023/01/26 01:24:00;;;;;;;26.93;17.67;;;1.00;99.90;;;1.71;100.00;98382.56;5217624;28;20645;-60
2023/01/26 01:26:34;;;;;;;25.40;16.87;;;1.00;99.90;;;1.72;99.03;98393.56;5212244;28;20206;-62
2023/01/26 01:29:07;;;;;;;23.13;16.47;;;0.90;99.90;;;1.61;98.60;98389.97;5222160;28;20199;-62
2023/01/26 01:31:42;;;;;;;25.80;17.87;;;0.90;99.90;;;1.47;99.12;98380.13;5220296;28;20201;-61
2023/01/26 01:34:15;;;;;;;26.00;18.07;;;0.80;99.90;;;1.50;99.88;98381.31;5216159;28;20623;-62
2023/01/26 01:36:49;;;;;;;27.00;17.83;;;0.80;99.90;;;1.56;99.84;98379.41;5220572;28;20270;-62
2023/01/26 01:39:22;;;;;;;24.27;17.67;;;0.90;99.90;;;1.59;100.00;98373.78;5206887;28;20270;-62
2023/01/26 01:41:55;;;;;;;27.33;18.17;;;0.90;99.90;;;1.63;100.00;98380.94;5217529;28;20193;-62
2023/01/26 01:44:28;;;;;;;24.20;17.77;;;1.00;99.90;;;1.64;100.00;98374.28;5214983;28;20229;-62
2023/01/26 01:47:06;;;;;;;24.60;17.37;;;1.00;99.90;;;1.67;100.00;98375.44;5220834;28;20661;-61
2023/01/26 01:49:45;;;;;;;22.93;17.03;;;1.00;99.90;;;1.62;100.00;98366.53;5212455;28;20232;-61
2023/01/26 01:52:28;;;;;;;25.40;16.00;;;0.90;99.90;;;1.59;100.00;98371.28;5207237;28;20679;-62
2023/01/26 01:55:08;;;;;;;21.47;15.70;;;0.90;99.90;;;1.62;100.00;98379.13;5215097;28;20259;-62
2023/01/26 01:57:45;;;;;;;23.17;16.87;;;1.00;99.90;;;1.63;100.00;98368.34;5211349;28;20291;-62
2023/01/26 02:00:22;;;;;;;23.80;17.53;;;1.00;99.90;;;1.62;100.00;98371.59;5221541;28;20231;-62
2023/01/26 02:03:13;;;;;;;24.63;17.40;;;1.00;99.90;;;1.64;100.00;98365.06;5212445;28;20307;-62
2023/01/26 02:05:55;;;;;;;22.63;15.57;;;1.00;99.90;;;1.56;100.00;98364.31;5222942;28;20594;-62
2023/01/26 02:08:34;;;;;;;22.20;16.33;;;0.90;99.90;;;1.62;100.00;98370.69;5210934;28;20200;-62
2023/01/26 02:11:12;;;;;;;21.50;16.33;;;0.90;99.90;;;1.59;100.00;98363.72;5211913;28;20269;-62
2023/01/26 02:13:48;;;;;;;20.10;14.60;;;0.90;99.90;;;1.60;100.00;98355.41;5215551;28;20255;-62
2023/01/26 02:16:22;;;;;;;21.13;14.80;;;1.00;99.90;;;1.62;100.00;98346.38;5213835;28;20204;-62
2023/01/26 02:18:55;;;;;;;21.50;14.80;;;1.00;99.90;;;1.64;100.00;98349.97;5218291;28;20309;-61
2023/01/26 02:21:30;;;;;;;21.40;15.03;;;1.00;99.90;;;1.63;100.00;98343.16;5212135;28;20202;-62
2023/01/26 02:24:12;;;;;;;17.87;13.17;;;1.00;99.90;;;1.56;100.00;98350.81;5212270;28;20229;-62
2023/01/26 02:26:48;;;;;;;17.67;13.80;;;0.90;99.90;;;1.59;100.00;98346.09;5218470;28;20266;-60
2023/01/26 02:29:22;;;;;;;19.90;14.17;;;0.90;99.90;;;1.56;100.00;98345.78;5215069;28;20336;-62
2023/01/26 02:31:55;;;;;;;20.03;13.53;;;0.80;99.90;;;1.64;99.76;98344.03;5219033;28;20278;-62
2023/01/26 02:34:28;;;;;;;20.00;13.90;;;0.90;99.90;;;1.53;99.75;98345.50;5210083;28;20666;-62
2023/01/26 02:37:01;;;;;;;17.00;13.90;;;0.90;99.90;;;1.47;100.00;98335.69;5221353;28;20247;-59
2023/01/26 02:39:46;;;;;;;21.13;14.87;;;0.80;99.90;;;1.47;100.00;98319.69;5211938;28;20226;-61
2023/01/26 02:42:37;;;;;;;21.77;14.77;;;0.80;99.90;;;1.48;100.00;98322.34;5217740;28;20259;-60
2023/01/26 02:45:15;;;;;;;18.13;14.03;;;0.80;99.90;;;1.46;100.00;98318.81;5211203;28;20225;-60
2023/01/26 02:47:48;;;;;;;19.10;13.93;;;0.80;99.90;;;1.48;100.00;98304.72;5211591;28;20283;-61
2023/01/26 02:50:20;;;;;;;21.67;14.17;;;0.80;99.90;;;1.47;100.00;98299.53;5216312;28;20247;-61
2023/01/26 02:52:53;;;;;;;19.87;14.20;;;0.80;99.90;;;1.48;100.00;98286.22;5213006;28;20262;-60
2023/01/26 02:55:27;;;;;;;21.13;14.53;;;0.80;99.90;;;1.47;100.00;98284.44;5205920;28;20222;-61
2023/01/26 02:58:04;;;;;;;23.50;14.83;;;0.80;99.90;;;1.48;100.00;98293.75;5218549;28;20700;-61
2023/01/26 03:00:40;;;;;;;26.77;15.67;;;0.80;99.90;;;1.48;100.00;98288.72;5216042;28;20592;-61
2023/01/26 03:03:17;;;;;;;22.37;16.30;;;0.80;99.90;;;1.48;100.00;98281.16;5211303;28;20226;-61
2023/01/26 03:05:50;;;;;;;22.73;16.37;;;0.80;99.90;;;1.48;100.00;98279.53;5213646;28;20200;-61
2023/01/26 03:08:23;;;;;;;25.90;16.73;;;0.70;99.90;;;1.41;100.00;98284.72;5221018;28;20261;-62
2023/01/26 03:10:57;;;;;;;23.60;16.23;;;0.70;99.90;;;1.48;100.00;98282.06;5209943;28;20205;-60
2023/01/26 03:13:31;;;;;;;29.30;18.30;;;0.80;99.90;;;1.49;100.00;98293.03;5211265;28;20307;-60
2023/01/26 03:16:07;;;;;;;27.97;19.00;;;0.80;99.90;;;1.52;100.00;98283.28;5210117;28;20204;-61
2023/01/26 03:27:27;;;;;;;26.57;16.93;;;0.90;99.90;;;1.46;100.00;98295.22;5215529;28;20205;-62
2023/01/26 03:30:02;;;;;;;26.33;17.73;;;0.80;99.90;;;1.48;100.00;98292.13;5222592;28;21011;-61
2023/01/26 03:32:35;;;;;;;25.50;17.40;;;0.80;99.90;;;1.45;100.00;98290.94;5224302;28;20211;-60
2023/01/26 03:35:13;;;;;;;27.77;19.40;;;0.80;99.90;;;1.50;100.00;98297.34;5213462;28;20244;-61
2023/01/26 03:37:53;;;;;;;29.53;19.23;;;0.80;99.90;;;1.49;100.00;98295.56;5216644;28;20233;-62
2023/01/26 03:57:32;;;;;;;25.27;17.67;;;0.80;99.90;;;1.47;100.00;98284.44;5215821;28;20266;-61
2023/01/26 04:00:06;;;;;;;23.23;16.80;;;0.70;99.90;;;1.43;100.00;98287.38;5218677;28;20229;-61
2023/01/26 04:08:23;;;;;;;25.13;17.57;;;0.80;99.90;;;1.41;100.00;98281.31;5217157;28;20228;-58
2023/01/26 04:10:57;;;;;;;28.63;17.40;;;0.70;99.90;;;1.34;100.00;98279.81;5212838;28;20658;-61
2023/01/26 04:22:03;;;;;;;26.17;17.00;;;0.70;99.90;;;1.37;100.00;98276.69;5216299;28;20204;-61
2023/01/26 04:24:36;;;;;;;24.50;17.43;;;0.70;99.90;;;1.38;100.00;98270.94;5222179;28;20323;-61
2023/01/26 04:27:10;;;;;;;22.33;16.87;;;0.70;99.90;;;1.40;100.00;98267.81;5215416;28;20232;-58
2023/01/26 04:29:43;;;;;;;23.00;16.03;;;0.70;99.90;;;1.36;100.00;98260.72;5211820;28;20273;-57
2023/01/26 04:32:16;;;;;;;22.77;15.63;;;0.70;99.90;;;1.34;100.00;98263.09;5219721;28;20285;-58
2023/01/26 04:34:51;;;;;;;23.07;15.63;;;0.70;99.90;;;1.32;100.00;98259.53;5214356;28;20301;-60
2023/01/26 04:37:25;;;;;;;22.10;15.23;;;0.60;99.90;;;1.25;100.00;98261.28;5224267;28;20316;-58
2023/01/26 04:39:58;;;;;;;22.47;16.73;;;0.60;99.90;;;1.23;100.00;98258.63;5216985;28;20255;-58
2023/01/26 04:42:31;;;;;;;21.30;15.43;;;0.60;99.90;;;1.26;100.00;98255.50;5217267;28;20263;-58
2023/01/26 04:45:05;;;;;;;23.10;14.43;;;0.60;99.90;;;1.13;100.00;98258.44;5212660;28;20231;-59
2023/01/26 04:47:38;;;;;;;20.63;14.50;;;0.60;99.90;;;1.09;100.00;98253.84;5206026;28;20300;-58
2023/01/26 04:50:12;;;;;;;22.80;14.60;;;0.50;99.90;;;1.07;100.00;98250.28;5212118;28;20212;-58
2023/01/26 04:52:46;;;;;;;17.37;13.60;;;0.50;99.90;;;1.03;100.00;98254.13;5218471;28;20296;-61
2023/01/26 04:55:19;;;;;;;17.17;12.73;;;0.50;99.90;;;1.11;100.00;98254.88;5214374;28;20259;-60
2023/01/26 04:57:52;;;;;;;16.17;11.40;;;0.50;99.90;;;1.17;100.00;98252.94;5220739;28;20204;-57
2023/01/26 05:00:25;;;;;;;14.83;11.93;;;0.50;99.90;;;1.19;100.00;98251.50;5213919;28;20278;-59
2023/01/26 05:02:58;;;;;;;19.17;12.67;;;0.60;99.90;;;1.18;100.00;98254.75;5213792;28;20301;-58
2023/01/26 05:05:36;;;;;;;17.90;12.60;;;0.60;99.90;;;1.27;100.00;98244.69;5219048;28;20209;-58
2023/01/26 05:08:09;;;;;;;15.63;12.27;;;0.70;99.90;;;1.30;100.00;98245.88;5213274;28;20278;-59
2023/01/26 05:10:42;;;;;;;18.20;12.93;;;0.70;99.90;;;1.28;100.00;98254.91;5209522;28;20299;-58
2023/01/26 05:13:16;;;;;;;16.00;11.57;;;0.70;99.90;;;1.31;100.00;98246.78;5212744;28;20329;-59
2023/01/26 05:15:49;;;;;;;18.30;13.40;;;0.70;99.90;;;1.33;100.00;98252.84;5220085;28;20953;-58
2023/01/26 05:18:22;;;;;;;18.10;13.93;;;0.70;99.90;;;1.22;100.00;98251.78;5213072;28;20232;-60
2023/01/26 05:20:56;;;;;;;18.63;12.73;;;0.70;99.90;;;1.28;100.00;98264.09;5217258;28;20810;-58
2023/01/26 05:23:30;;;;;;;19.03;13.77;;;0.80;99.90;;;1.33;100.00;98258.78;5212548;28;20220;-60
2023/01/26 05:26:03;;;;;;;18.73;13.37;;;0.70;99.90;;;1.35;100.00;98249.75;5209063;28;20292;-61
2023/01/26 05:28:37;;;;;;;16.77;13.17;;;0.70;99.90;;;1.37;100.00;98254.91;5209045;28;20196;-58
2023/01/26 05:31:10;;;;;;;18.17;13.47;;;0.70;99.90;;;1.37;100.00;98254.03;5211126;28;20208;-60
2023/01/26 05:33:43;;;;;;;18.40;12.60;;;0.70;99.90;;;1.32;100.00;98253.59;5214060;28;20699;-61
2023/01/26 05:36:17;;;;;;;18.47;12.80;;;0.70;99.90;;;1.34;100.00;98253.03;5214543;28;20267;-61
2023/01/26 05:38:50;;;;;;;17.23;13.20;;;0.70;99.90;;;1.31;100.00;98255.22;5207527;28;20228;-60
2023/01/26 05:41:23;;;;;;;17.17;12.70;;;0.70;99.90;;;1.32;100.00;98253.59;5214699;28;20363;-61
2023/01/26 05:43:56;;;;;;;19.63;13.30;;;0.70;99.90;;;1.35;100.00;98259.81;5212995;28;20249;-61
2023/01/26 05:46:29;;;;;;;18.97;14.13;;;0.70;99.90;;;1.35;100.00;98259.81;5214802;28;20241;-61
2023/01/26 05:49:02;;;;;;;17.30;14.03;;;0.70;99.90;;;1.35;100.00;98264.84;5219584;28;20619;-62
2023/01/26 05:51:37;;;;;;;19.30;13.40;;;0.70;99.90;;;1.38;100.00;98263.38;5212576;28;20689;-60
2023/01/26 05:54:10;;;;;;;19.27;13.40;;;0.70;99.90;;;1.41;100.00;98254.50;5213996;28;20797;-61
2023/01/26 05:56:43;;;;;;;19.47;14.67;;;0.70;99.90;;;1.42;100.00;98261.31;5208299;28;20285;-60
2023/01/26 05:59:16;;;;;;;19.43;14.03;;;0.80;99.90;;;1.39;100.00;98257.59;5211169;28;20222;-60
2023/01/26 06:01:49;;;;;;;23.57;15.27;;;0.80;99.90;;;1.42;100.00;98267.97;5210040;28;20266;-61
2023/01/26 06:04:22;;;;;;;19.90;13.60;;;0.80;99.90;;;1.47;100.00;98264.28;5212841;28;20309;-60
2023/01/26 06:06:59;;;;;;;22.27;14.43;;;0.80;99.90;;;1.45;100.00;98260.72;5211264;28;20206;-61
2023/01/26 06:09:33;;;;;;;22.67;15.07;;;0.80;99.90;;;1.49;100.00;98270.38;5222193;28;20223;-61
2023/01/26 06:12:07;;;;;;;22.47;14.70;;;0.80;99.90;;;1.49;100.00;98271.25;5208919;28;20660;-61
2023/01/26 06:14:40;;;;;;;19.17;13.37;;;0.80;99.90;;;1.53;100.00;98269.91;5211805;28;20252;-61
2023/01/26 06:17:15;;;;;;;22.57;14.87;;;0.80;99.90;;;1.54;100.00;98274.22;5207609;28;20240;-60
2023/01/26 06:19:48;;;;;;;20.13;14.17;;;0.70;99.90;;;1.49;100.00;98272.91;5218698;28;20255;-60
2023/01/26 06:22:23;;;;;;;23.00;15.43;;;0.80;99.90;;;1.44;100.00;98266.50;5215543;28;20230;-61
2023/01/26 06:24:56;;;;;;;22.20;14.40;;;0.70;99.90;;;1.42;100.00;98270.50;5214788;28;20330;-61
2023/01/26 06:27:29;;;;;;;20.10;15.00;;;0.80;99.90;;;1.49;100.00;98262.81;5214402;28;20247;-60
2023/01/26 06:30:04;;;;;;;18.40;12.87;;;0.70;99.90;;;1.43;100.00;98263.09;5216894;28;20693;-60
2023/01/26 06:32:37;;;;;;;24.00;14.63;;;0.70;99.90;;;1.40;100.00;98269.44;5217557;28;20201;-59
2023/01/26 06:35:10;;;;;;;21.80;15.23;;;0.70;99.90;;;1.31;100.00;98262.75;5222196;28;20279;-60
2023/01/26 06:37:45;;;;;;;22.73;14.57;;;0.70;99.90;;;1.27;100.00;98265.72;5217580;28;20251;-59
2023/01/26 06:40:18;;;;;;;21.10;14.60;;;0.70;99.90;;;1.24;100.00;98270.47;5213783;28;20227;-58
2023/01/26 06:42:52;;;;;;;22.23;14.73;;;0.60;99.90;;;1.23;100.00;98272.81;5215801;28;20319;-60
2023/01/26 06:45:25;;;;;;;20.73;14.30;;;0.60;99.90;;;1.22;100.00;98261.84;5210900;28;20205;-60
2023/01/26 06:47:58;;;;;;;22.93;15.10;;;0.60;99.90;;;1.24;100.00;98265.44;5214842;28;20339;-59
2023/01/26 06:50:33;;;;;;;22.93;15.63;;;0.60;99.90;;;1.21;100.00;98267.63;5218405;28;20212;-60
2023/01/26 06:53:26;;;;;;;24.23;15.57;;;0.50;99.90;;;1.16;100.00;98265.41;5208028;28;20393;-59
2023/01/26 06:55:59;;;;;;;24.70;15.47;;;0.60;99.90;;;1.13;100.00;98263.47;5209763;28;20259;-60
2023/01/26 06:58:32;;;;;;;22.20;14.70;;;0.50;99.90;;;1.12;100.00;98270.13;5208981;28;20211;-60
2023/01/26 07:01:06;;;;;;;23.53;15.23;;;0.50;99.90;;;1.15;100.00;98274.59;5213058;28;20238;-60
2023/01/26 07:03:39;;;;;;;23.50;14.60;;;0.50;99.90;;;1.15;100.00;98269.56;5214835;28;20601;-60
2023/01/26 07:06:12;;;;;;;22.93;15.03;;;0.50;99.90;;;1.07;100.00;98275.44;5226411;28;20296;-60
2023/01/26 07:08:47;;;;;;;22.93;14.57;;;0.50;99.90;;;0.99;100.00;98271.28;5220315;28;20277;-60
2023/01/26 07:11:20;;;;;;;26.40;16.80;;;0.40;99.90;;;1.00;100.00;98275.56;5219371;28;20611;-60
2023/01/26 07:13:53;;;;;;;25.83;14.90;;;0.50;99.90;;;1.04;100.00;98277.66;5213230;28;21105;-61
2023/01/26 07:16:27;;;;;;;26.13;15.97;;;0.50;99.90;;;1.00;100.00;98279.00;5218694;28;20302;-61
2023/01/26 07:19:00;;;;;;;24.47;15.60;;;0.50;99.90;;;1.02;100.00;98279.13;5217285;28;20215;-60
2023/01/26 07:21:34;;;;;;;24.97;16.57;;;0.50;99.90;;;1.01;100.00;98275.72;5219963;28;20231;-61
2023/01/26 07:24:09;;;;;;;24.27;15.43;;;0.50;99.90;;;1.03;100.00;98275.84;5215344;28;20219;-60
2023/01/26 07:26:42;;;;;;;22.77;14.33;;;0.50;99.90;;;1.05;100.00;98276.91;5212960;28;20203;-60
2023/01/26 07:29:15;;;;;;;22.50;13.80;;;0.50;99.90;;;1.03;100.00;98274.25;5210267;28;20208;-61
2023/01/26 07:31:48;;;;;;;22.50;14.57;;;0.50;99.90;;;1.04;100.00;98275.16;5215964;28;20212;-59
2023/01/26 07:34:21;;;;;;;25.60;15.93;;;0.50;99.90;;;1.05;100.00;98281.94;5215427;28;20308;-61
2023/01/26 07:36:54;;;;;;;23.80;15.53;;;0.50;99.90;;;1.08;100.00;98284.75;5215814;28;20254;-61
2023/01/26 07:39:29;;;;;;;20.20;13.93;;;0.50;99.90;;;1.10;100.00;98280.78;5216353;28;20273;-61
2023/01/26 07:42:02;;;;;;;21.60;13.10;;;0.60;99.90;;;1.15;100.00;98277.09;5218012;28;20255;-62
2023/01/26 07:44:35;;;;;;;19.17;13.23;;;0.60;99.90;;;1.15;100.00;98289.69;5221958;28;20319;-61
2023/01/26 07:47:08;;;;;;;17.50;12.83;;;0.60;99.90;;;1.18;100.00;98290.00;5212922;28;20806;-61
2023/01/26 07:49:41;;;;;;;21.53;13.67;;;0.60;99.90;;;1.26;100.00;98273.13;5215485;28;20689;-62
2023/01/26 07:52:14;;;;;;;20.07;13.10;;;0.70;99.90;;;1.30;100.00;98281.13;5209194;28;20213;-61
2023/01/26 07:54:49;;;;;;;21.90;14.13;;;0.70;99.90;;;1.34;100.00;98272.25;5210515;28;20308;-61
2023/01/26 07:57:22;;;;;;;23.23;14.70;;;0.70;99.90;;;1.42;100.00;98270.50;5211704;28;20203;-60
2023/01/26 07:59:55;;;;;;;22.27;15.33;;;0.70;99.90;;;1.35;100.00;98271.53;5217146;28;20301;-59
2023/01/26 08:02:28;;;;;;;20.23;14.13;;;0.70;99.90;;;1.40;100.00;98267.81;5218371;28;20218;-58
2023/01/26 08:05:02;;;;;;;21.67;14.67;;;0.70;99.90;;;1.52;100.00;98268.16;5219387;28;20591;-59
2023/01/26 08:07:35;;;;;;;20.97;14.67;;;0.80;99.90;;;1.59;100.00;98265.47;5211834;28;20239;-59
2023/01/26 08:10:12;;;;;;;20.23;13.70;;;0.80;99.90;;;1.57;100.00;98269.47;5215953;28;20204;-59
2023/01/26 08:12:45;;;;;;;20.57;13.70;;;0.80;99.90;;;1.52;100.00;98266.53;5217785;28;20200;-59
2023/01/26 08:15:18;;;;;;;19.27;13.30;;;0.80;99.90;;;1.56;100.00;98266.06;5217359;28;20291;-58
2023/01/26 08:17:53;;;;;;;18.60;12.60;;;0.70;99.90;;;1.55;100.00;98255.84;5217417;28;20616;-59
2023/01/26 08:20:26;;;;;;;15.37;11.00;;;0.80;99.90;;;1.49;100.00;98263.72;5214944;28;20239;-58
2023/01/26 08:22:59;;;;;;;15.10;9.90;;;0.80;99.90;;;1.48;100.00;98263.53;5213499;28;20229;-60
2023/01/26 08:25:34;;;;;;;13.03;9.93;;;0.70;99.90;;;1.39;100.00;98257.59;5212989;28;20212;-60
2023/01/26 08:28:07;;;;;;;14.97;11.67;;;0.70;99.90;;;1.37;100.00;98256.56;5215311;28;20227;-59
2023/01/26 08:30:40;;;;;;;17.47;13.13;;;0.70;99.90;;;1.38;100.00;98264.28;5211939;28;20247;-60
2023/01/26 08:33:14;;;;;;;13.67;11.40;;;0.70;99.90;;;1.45;100.00;98255.69;5215831;28;20276;-59
2023/01/26 08:35:47;;;;;;;15.27;11.60;;;0.70;99.90;;;1.42;100.00;98255.38;5213279;28;20260;-59
2023/01/26 08:38:20;;;;;;;21.53;14.00;;;0.70;99.90;;;1.40;100.00;98256.84;5223327;28;20261;-59
2023/01/26 08:40:54;;;;;;;20.77;15.30;;;0.80;99.90;;;1.49;100.00;98258.66;5218806;28;20568;-57
2023/01/26 08:43:27;;;;;;;24.17;17.33;;;0.80;99.90;;;1.53;100.00;98245.63;5216879;28;20312;-59
2023/01/26 08:46:01;;;;;;;21.47;15.53;;;0.80;99.90;;;1.66;100.00;98249.31;5214578;28;20218;-60
2023/01/26 08:48:34;;;;;;;23.47;16.53;;;0.80;99.90;;;1.60;100.00;98252.13;5213108;28;20229;-58
2023/01/26 08:51:08;;;;;;;21.00;15.10;;;0.80;99.90;;;1.49;100.00;98253.63;5219191;28;20705;-60
2023/01/26 08:53:41;;;;;;;21.10;15.37;;;0.80;99.90;;;1.51;100.00;98242.06;5212130;28;20224;-60
2023/01/26 08:56:16;;;;;;;24.57;17.23;;;0.80;99.90;;;1.47;100.00;98234.06;5216920;28;20212;-60
2023/01/26 08:58:49;;;;;;;24.10;16.03;;;0.80;99.90;;;1.46;100.00;98234.78;5209445;28;20211;-58
2023/01/26 09:01:22;;;;;;;23.97;16.77;;;0.80;99.90;;;1.40;100.00;98246.78;5213416;28;20208;-59
2023/01/26 09:03:55;;;;;;;25.50;16.40;;;0.70;99.90;;;1.38;100.00;98249.16;5216066;28;20259;-60
2023/01/26 09:06:29;;;;;;;25.83;17.00;;;0.80;99.90;;;1.46;100.00;98234.78;5219559;28;20661;-60
2023/01/26 09:09:02;;;;;;;23.77;16.30;;;0.80;99.90;;;1.41;100.00;98230.97;5219738;28;20300;-60
2023/01/26 09:11:36;;;;;;;25.40;16.57;;;0.80;99.90;;;1.48;100.00;98235.84;5223773;28;20278;-60
2023/01/26 09:14:09;;;;;;;25.97;15.90;;;0.80;99.90;;;1.51;100.00;98239.53;5206384;28;20226;-59
2023/01/26 09:16:42;;;;;;;21.97;14.30;;;0.80;99.90;;;1.62;100.00;98239.72;5206190;28;20654;-60
2023/01/26 09:19:16;;;;;;;20.27;13.90;;;0.80;99.90;;;1.67;100.00;98241.06;5213810;28;20209;-60
2023/01/26 09:21:52;;;;;;;19.47;13.63;;;0.90;99.90;;;1.70;100.00;98248.91;5211644;28;20262;-60
2023/01/26 09:24:26;;;;;;;20.80;13.57;;;0.90;99.90;;;1.69;100.00;98247.09;5208218;28;20590;-58
2023/01/26 09:27:00;;;;;;;20.07;14.53;;;1.00;99.90;;;1.70;100.00;98244.75;5215052;28;20208;-60
2023/01/26 09:29:33;;;;;;;17.60;13.07;;;1.00;99.90;;;1.70;100.00;98243.88;5208261;28;20233;-59
2023/01/26 09:32:06;;;;;;;18.63;13.30;;;1.00;99.90;;;1.68;100.00;98251.25;5214419;28;20197;-60
2023/01/26 09:34:39;;;;;;;16.30;12.97;;;0.90;99.90;;;1.66;100.00;98250.25;5209999;28;20257;-61
2023/01/26 09:37:13;;;;;;;14.70;11.27;;;1.00;99.90;;;1.68;100.00;98246.22;5217882;28;20292;-60
2023/01/26 09:39:46;;;;;;;11.37;8.90;;;1.00;99.90;;;1.56;100.00;98256.00;5220006;28;20281;-60
2023/01/26 09:42:57;;;;;;;10.67;8.23;;;0.90;99.90;;;1.55;100.00;98253.34;5219936;28;20640;-60
2023/01/26 09:45:38;;;;;;;10.43;9.33;;;0.80;99.90;;;1.53;100.00;98253.19;5210063;28;20204;-60
2023/01/26 09:48:22;;;;;;;10.67;8.70;;;0.80;99.90;;;1.56;100.00;98260.16;5213706;28;20197;-60
2023/01/26 09:51:03;;;;;;;11.97;8.67;;;0.80;99.90;;;1.53;100.00;98264.88;5212173;28;20209;-59
2023/01/26 09:53:46;;;;;;;11.33;9.20;;;0.80;99.90;;;1.50;99.63;98257.03;5217030;28;20220;-59
2023/01/26 09:56:25;;;;;;;13.77;8.67;;;0.80;99.90;;;1.42;99.83;98267.97;5219527;28;20205;-59
2023/01/26 09:59:05;;;;;;;11.23;8.93;;;0.80;99.90;;;1.37;99.45;98267.50;5211913;28;20287;-57
2023/01/26 10:01:45;;;;;;;13.07;9.77;;;0.80;99.90;;;1.44;99.60;98253.91;5214852;28;20275;-58
2023/01/26 10:04:31;;;;;;;12.80;9.40;;;0.80;99.90;;;1.51;100.00;98258.81;5216006;28;20221;-58
2023/01/26 10:07:09;;;;;;;12.23;10.03;;;0.90;99.90;;;1.49;99.40;98257.78;5220980;28;20199;-60
2023/01/26 10:09:47;;;;;;;11.60;9.73;;;0.80;99.90;;;1.51;98.80;98251.25;5212893;28;20786;-58
2023/01/26 10:12:25;;;;;;;10.83;8.97;;;0.80;99.90;;;1.41;98.57;98252.00;5218972;28;20204;-59
2023/01/26 10:15:07;;;;;;;14.30;9.97;;;0.80;99.90;;;1.43;99.15;98249.59;5207693;28;20736;-59
2023/01/26 10:17:43;;;;;;;12.17;9.67;;;0.80;99.90;;;1.51;99.32;98251.25;5208558;28;20193;-57
2023/01/26 10:20:29;;;;;;;12.90;10.60;;;0.80;99.90;;;1.50;99.04;98250.38;5208724;28;20197;-58
2023/01/26 10:23:07;;;;;;;14.90;10.90;;;0.80;99.90;;;1.51;99.49;98251.25;5220830;28;20231;-60
2023/01/26 10:25:43;;;;;;;14.33;10.63;;;0.80;99.90;;;1.54;99.85;98249.03;5203333;28;20271;-59
2023/01/26 10:28:19;;;;;;;12.60;10.10;;;0.80;99.90;;;1.53;99.01;98252.28;5218195;28;20208;-59
2023/01/26 10:30:54;;;;;;;11.97;9.63;;;0.80;99.90;;;1.54;98.72;98254.94;5208894;28;20625;-59
2023/01/26 10:33:33;;;;;;;11.10;8.70;;;0.80;99.90;;;1.44;97.86;98257.31;5211677;28;20722;-60
2023/01/26 10:36:09;;;;;;;11.67;10.37;;;0.80;99.90;;;1.38;97.59;98264.28;5212290;28;20203;-59
2023/01/26 10:38:44;;;;;;;13.67;10.93;;;0.70;99.90;;;1.29;97.72;98264.25;5213287;28;20685;-59
2023/01/26 10:41:28;;;;;;;13.40;10.83;;;0.70;99.90;;;1.31;98.47;98262.75;5214839;28;20219;-59
2023/01/26 10:44:04;;;;;;;12.03;10.80;;;0.70;99.90;;;1.28;98.25;98267.50;5212366;28;20683;-61
2023/01/26 10:46:41;;;;;;;12.90;10.90;;;0.60;99.90;;;1.33;98.57;98260.41;5214368;28;20645;-59
2023/01/26 10:49:16;;;;;;;13.67;10.23;;;0.70;99.90;;;1.28;97.77;98262.47;5215769;28;20208;-56
2023/01/26 10:52:09;;;;;;;13.50;11.13;;;0.70;99.90;;;1.33;97.22;98266.31;5213141;28;20583;-60
2023/01/26 10:54:43;;;;;;;16.33;11.20;;;0.60;99.90;;;1.26;97.88;98263.03;5217179;28;20224;-59
2023/01/26 10:57:21;;;;;;;15.30;12.67;;;0.60;99.90;;;1.17;97.68;98247.91;5208454;28;20201;-59
2023/01/26 10:59:57;;;;;;;16.13;11.40;;;0.60;99.90;;;1.12;96.86;98260.06;5207826;28;20753;-58
2023/01/26 11:02:34;;;;;;;15.07;11.07;;;0.50;99.90;;;1.17;97.54;98257.97;5207239;28;20205;-60
2023/01/26 11:05:22;;;;;;;14.77;11.30;;;0.50;99.90;;;1.12;97.64;98259.19;5216817;28;20232;-60
2023/01/26 11:07:59;;;;;;;15.77;11.83;;;0.50;99.90;;;1.19;97.33;98254.00;5213066;28;20259;-59
2023/01/26 11:10:34;;;;;;;14.03;11.47;;;0.50;99.90;;;1.21;96.48;98259.22;5222103;28;20249;-59
2023/01/26 11:13:19;;;;;;;14.17;10.83;;;0.50;99.90;;;1.18;97.42;98248.84;5209516;28;20307;-60
2023/01/26 11:16:06;;;;;;;13.20;11.03;;;0.50;99.90;;;1.30;98.05;98245.88;5215398;28;20254;-59
2023/01/26 11:18:54;;;;;;;17.67;11.47;;;0.60;99.90;;;1.39;97.41;98245.00;5211886;28;20266;-59
2023/01/26 11:21:34;;;;;;;14.77;11.10;;;0.70;99.90;;;1.33;97.78;98241.16;5214570;28;20300;-60
2023/01/26 11:24:16;;;;;;;18.03;13.17;;;0.70;99.90;;;1.33;97.77;98241.16;5208419;28;20233;-58
2023/01/26 11:27:19;;;;;;;15.97;12.60;;;0.70;99.90;;;1.31;98.11;98242.63;5212277;28;20629;-59
2023/01/26 11:30:40;;;;;;;14.63;11.70;;;0.70;99.90;;;1.45;96.86;98235.53;5205432;28;20665;-60